Bretagne — FNBR — position and weather

sailwx.info

Track history (hours):
 
Tides and Currents Weather Stations Pressure Air Temp Water Temp Dewpoint Dewpoint Depression Visibility Wind Speed Wind Dir Waves Ship Positions

Bretagne

Operator: Brittany Ferries

Last reported at 2018-Aug-17 23:31 UTC. Time now 2018-Aug-18 00:47 UTC.
Position N 49°55' W 001°45'.

Length 151 m; beam 27 m.

Type: Ship. MMSI: 227286000.

Date/timePositionNaut miles runAvg speedWind from/ knotsBaromVisibWave heightAir tempDewpointWater temp
2018-Aug-17 23:31N 49°55' W 001°45'013.2
2018-Aug-17 23:30N 49°56' W 001°45'3514.8
2018-Aug-17 21:10N 50°26' W 001°19'316.0
2018-Aug-17 21:00N 50°28' W 001°16'816.3
2018-Aug-17 20:30N 50°35' W 001°09'714.1
2018-Aug-17 20:01N 50°41' W 001°03'612.1
2018-Aug-17 19:30N 50°46' W 001°06'2 4.2
2018-Aug-17 18:58N 50°49' W 001°06'0 0.0
2018-Aug-17 18:28N 50°49' W 001°06'0 0.0
2018-Aug-17 17:58N 50°49' W 001°06'0 0.0
2018-Aug-17 17:28N 50°49' W 001°06'0 0.0
2018-Aug-17 17:00N 50°49' W 001°06'4 7.9
2018-Aug-17 16:30N 50°45' W 001°05'611.4
2018-Aug-17 16:01N 50°39' W 001°05'815.1
2018-Aug-17 15:31N 50°33' W 001°12'816.0
2018-Aug-17 14:59N 50°26' W 001°19'1017.3
2018-Aug-17 14:24N 50°18' W 001°28'74 6.7
2018-Aug-17 03:24N 49°13' W 002°22'512.5
2018-Aug-17 03:00N 49°18' W 002°20'714.6
2018-Aug-17 02:30N 49°24' W 002°16'816.1
2018-Aug-17 02:00N 49°32' W 002°11'815.8
2018-Aug-17 01:30N 49°39' W 002°05'4913.9
2018-Aug-16 21:58N 50°19' W 001°22'715.3
2018-Aug-16 21:30N 50°25' W 001°15'815.4
2018-Aug-16 21:00N 50°30' W 001°07'815.8
2018-Aug-16 20:30N 50°37' W 001°00'612.7
2018-Aug-16 20:00N 50°43' W 001°02'612.2
2018-Aug-16 19:31N 50°48' W 001°07'1 1.8
2018-Aug-16 19:00N 50°49' W 001°06'0 0.0
2018-Aug-16 18:30N 50°49' W 001°06'0 0.0
2018-Aug-16 18:00N 50°49' W 001°06'0 0.0
2018-Aug-16 17:30N 50°49' W 001°06'0 0.3
2018-Aug-16 17:00N 50°49' W 001°06'5 9.3
2018-Aug-16 16:30N 50°44' W 001°04'612.3
2018-Aug-16 16:00N 50°38' W 001°06'713.5
2018-Aug-16 15:30N 50°33' W 001°12'611.4
2018-Aug-16 15:00N 50°28' W 001°18'5517.6
2018-Aug-16 11:54N 49°41' W 002°02'1621.5
2018-Aug-16 11:10N 49°26' W 001°57'521.0
2018-Aug-16 10:55N 49°21' W 001°55'1420.0
2018-Aug-16 10:14N 49°07' W 001°52'1218.4
2018-Aug-16 09:36N 48°56' W 001°58'420.5
2018-Aug-16 09:25N 48°53' W 001°60'1020.2
2018-Aug-16 08:56N 48°43' W 002°05'5 2.1
2018-Aug-16 06:26N 48°38' W 002°02'0 1.0
2018-Aug-16 05:58N 48°39' W 002°02'613.3
2018-Aug-16 05:30N 48°44' W 002°07'815.4
2018-Aug-16 05:00N 48°50' W 002°15'2415.4
2018-Aug-16 03:27N 49°14' W 002°21'817.5
2018-Aug-16 03:00N 49°21' W 002°18'817.0
2018-Aug-16 02:31N 49°29' W 002°13'816.9
2018-Aug-16 02:00N 49°37' W 002°08'916.5
2018-Aug-16 01:28N 49°45' W 002°02'714.8
2018-Aug-16 01:00N 49°50' W 001°56'1313.9
2018-Aug-16 00:03N 50°02' W 001°46'213.7
2018-Aug-15 23:54N 50°03' W 001°44'612.9
2018-Aug-15 23:27N 50°08' W 001°38'1013.1
2018-Aug-15 22:42N 50°15' W 001°28'613.4
2018-Aug-15 22:14N 50°20' W 001°22'313.6
2018-Aug-15 22:00N 50°23' W 001°19'713.6
2018-Aug-15 21:30N 50°28' W 001°13'713.4
2018-Aug-15 20:59N 50°34' W 001°06'713.9
2018-Aug-15 20:31N 50°39' W 000°59'510.6
2018-Aug-15 20:01N 50°44' W 001°02'611.7
2018-Aug-15 19:31N 50°48' W 001°07'1 1.5
2018-Aug-15 19:00N 50°49' W 001°06'0 0.0
2018-Aug-15 18:30N 50°49' W 001°06'0 0.0
2018-Aug-15 18:00N 50°49' W 001°06'0 0.0
2018-Aug-15 17:30N 50°49' W 001°06'0 0.0
2018-Aug-15 17:00N 50°49' W 001°06'3 5.7
2018-Aug-15 16:31N 50°46' W 001°05'612.2
2018-Aug-15 16:00N 50°40' W 001°04'713.2
2018-Aug-15 15:31N 50°34' W 001°10'713.7
2018-Aug-15 15:00N 50°29' W 001°16'815.0
2018-Aug-15 14:30N 50°22' W 001°22'915.9
2018-Aug-15 13:55N 50°14' W 001°30'716.3
2018-Aug-15 13:30N 50°09' W 001°37'918.7
2018-Aug-15 13:00N 50°01' W 001°44'1020.8
2018-Aug-15 12:30N 49°52' W 001°53'1121.9
2018-Aug-15 12:00N 49°43' W 002°02'1221.5
2018-Aug-15 11:26N 49°31' W 001°59'921.2
2018-Aug-15 11:00N 49°22' W 001°56'1120.3
2018-Aug-15 10:28N 49°12' W 001°52'1019.7
2018-Aug-15 09:58N 49°02' W 001°51'920.6
2018-Aug-15 09:30N 48°54' W 001°59'1120.1
2018-Aug-15 08:57N 48°42' W 002°01'4 1.4
2018-Aug-15 06:09N 48°38' W 002°02'2 5.3
2018-Aug-15 05:51N 48°39' W 002°04'617.6
2018-Aug-15 05:30N 48°45' W 002°08'918.2
2018-Aug-15 05:00N 48°52' W 002°17'1313.1
2018-Aug-15 04:03N 49°04' W 002°22'113.0
2018-Aug-15 03:57N 49°05' W 002°22'813.3
2018-Aug-15 03:24N 49°12' W 002°21'614.4
2018-Aug-15 03:00N 49°18' W 002°20'815.8
2018-Aug-15 02:30N 49°25' W 002°15'917.5
2018-Aug-15 02:00N 49°33' W 002°10'917.9
2018-Aug-15 01:29N 49°42' W 002°05'916.4
2018-Aug-15 00:57N 49°49' W 001°57'714.4
2018-Aug-15 00:29N 49°54' W 001°49'714.0
2018-Aug-14 23:58N 49°59' W 001°43'2113.3
2018-Aug-14 22:22N 50°18' W 001°27'513.3
2018-Aug-14 21:59N 50°22' W 001°22'613.3
2018-Aug-14 21:30N 50°27' W 001°17'612.9
2018-Aug-14 21:00N 50°33' W 001°11'713.0
2018-Aug-14 20:30N 50°38' W 001°05'510.2
2018-Aug-14 20:00N 50°43' W 001°03'612.1
2018-Aug-14 19:31N 50°49' W 001°07'1 1.5
2018-Aug-14 18:58N 50°49' W 001°06'0 0.0
2018-Aug-14 18:28N 50°49' W 001°06'0 0.0
2018-Aug-14 17:58N 50°49' W 001°06'0 0.0
2018-Aug-14 17:28N 50°49' W 001°06'0 0.3
2018-Aug-14 17:00N 50°49' W 001°06'4 8.2
2018-Aug-14 16:31N 50°45' W 001°05'510.5
2018-Aug-14 16:00N 50°39' W 001°04'713.1
2018-Aug-14 15:30N 50°34' W 001°10'713.3
2018-Aug-14 15:01N 50°29' W 001°16'815.1
2018-Aug-14 14:30N 50°22' W 001°23'1016.4
2018-Aug-14 13:55N 50°15' W 001°32'1918.9
2018-Aug-14 12:57N 49°58' W 001°46'1019.9
2018-Aug-14 12:27N 49°50' W 001°55'920.5
2018-Aug-14 11:59N 49°42' W 002°02'1120.4
2018-Aug-14 11:28N 49°32' W 001°59'1020.8
2018-Aug-14 10:58N 49°21' W 001°56'1220.4
2018-Aug-14 10:24N 49°10' W 001°52'819.5
2018-Aug-14 09:58N 49°02' W 001°51'920.2
2018-Aug-14 09:30N 48°54' W 001°59'1119.7
2018-Aug-14 08:58N 48°43' W 002°01'5 1.6
2018-Aug-14 05:58N 48°38' W 002°02'912.9
2018-Aug-14 05:18N 48°46' W 002°08'513.2
2018-Aug-14 04:57N 48°49' W 002°14'713.4
2018-Aug-14 04:26N 48°54' W 002°21'2016.7
2018-Aug-14 03:14N 49°14' W 002°22'417.7
2018-Aug-14 03:00N 49°18' W 002°21'918.2
2018-Aug-14 02:30N 49°26' W 002°14'918.0
2018-Aug-14 02:00N 49°34' W 002°08'2417.2
2018-Aug-14 00:38N 49°54' W 001°50'315.1
2018-Aug-14 00:28N 49°56' W 001°47'2015.8
2018-Aug-13 23:10N 50°14' W 001°30'715.1
2018-Aug-13 22:42N 50°19' W 001°23'314.4
2018-Aug-13 22:31N 50°21' W 001°20'612.7
2018-Aug-13 22:01N 50°26' W 001°14'612.4
2018-Aug-13 21:31N 50°31' W 001°08'612.6
2018-Aug-13 21:00N 50°37' W 001°03'612.7
2018-Aug-13 20:31N 50°42' W 000°59'713.5
2018-Aug-13 20:00N 50°47' W 001°06'2 2.8
2018-Aug-13 19:25N 50°49' W 001°06'0 0.0
2018-Aug-13 18:58N 50°49' W 001°06'0 0.0
2018-Aug-13 18:28N 50°49' W 001°06'0 0.0
2018-Aug-13 17:55N 50°49' W 001°06'0 0.0
2018-Aug-13 17:30N 50°49' W 001°06'2 3.1
2018-Aug-13 17:01N 50°47' W 001°07'611.9
2018-Aug-13 16:31N 50°42' W 001°02'612.5
2018-Aug-13 16:00N 50°36' W 001°07'815.0
2018-Aug-13 15:30N 50°30' W 001°13'816.8
2018-Aug-13 15:00N 50°22' W 001°19'81 7.0
2018-Aug-13 03:17N 49°12' W 002°24'413.6
2018-Aug-13 02:58N 49°17' W 002°22'613.5
2018-Aug-13 02:30N 49°22' W 002°17'816.8
2018-Aug-13 02:01N 49°29' W 002°12'5316.7
2018-Aug-12 22:48N 50°16' W 001°30'514.0
2018-Aug-12 22:27N 50°20' W 001°26'613.6
2018-Aug-12 22:00N 50°24' W 001°20'713.1
2018-Aug-12 21:30N 50°30' W 001°14'612.5
2018-Aug-12 21:00N 50°35' W 001°08'612.5
2018-Aug-12 20:30N 50°40' W 001°03'612.4
2018-Aug-12 20:00N 50°46' W 001°06'2 4.0
2018-Aug-12 19:26N 50°49' W 001°06'0 0.0
2018-Aug-12 18:58N 50°49' W 001°06'0 0.0
2018-Aug-12 18:26N 50°49' W 001°06'0 0.0
2018-Aug-12 17:56N 50°49' W 001°06'0 0.1
2018-Aug-12 17:30N 50°49' W 001°06'3 5.3
2018-Aug-12 17:01N 50°46' W 001°05'714.1
2018-Aug-12 16:31N 50°40' W 000°59'917.2
2018-Aug-12 16:01N 50°33' W 001°08'917.7
2018-Aug-12 15:30N 50°25' W 001°14'917.4
2018-Aug-12 15:01N 50°18' W 001°21'916.9
2018-Aug-12 14:30N 50°11' W 001°29'916.3
2018-Aug-12 13:55N 50°05' W 001°40'716.6
2018-Aug-12 13:30N 49°59' W 001°46'1216.8
2018-Aug-12 12:49N 49°50' W 001°57'516.8
2018-Aug-12 12:30N 49°46' W 002°03'1115.9
2018-Aug-12 11:50N 49°36' W 002°08'618.8
2018-Aug-12 11:30N 49°31' W 002°12'1019.7
2018-Aug-12 11:00N 49°21' W 002°18'1420.2
2018-Aug-12 10:19N 49°08' W 002°21'721.1
2018-Aug-12 10:00N 49°01' W 002°21'1020.9
2018-Aug-12 09:31N 48°51' W 002°17'1121.0
2018-Aug-12 09:00N 48°43' W 002°07'5 8.0
2018-Aug-12 08:20N 48°38' W 002°02'0 0.0
2018-Aug-12 07:59N 48°38' W 002°02'0 0.0
2018-Aug-12 07:08N 48°38' W 002°02'0 0.0
2018-Aug-12 06:38N 48°38' W 002°02'0 0.0
2018-Aug-12 06:13N 48°38' W 002°02'0 0.5
2018-Aug-12 06:00N 48°38' W 002°02'612.8
2018-Aug-12 05:30N 48°44' W 002°07'714.0
2018-Aug-12 04:59N 48°50' W 002°14'714.5
2018-Aug-12 04:30N 48°55' W 002°21'913.2
2018-Aug-12 03:49N 49°04' W 002°22'613.4
2018-Aug-12 03:23N 49°10' W 002°23'513.1
2018-Aug-12 03:00N 49°15' W 002°22'612.7
2018-Aug-12 02:30N 49°21' W 002°19'714.0
2018-Aug-12 02:00N 49°27' W 002°14'714.1
2018-Aug-12 01:30N 49°33' W 002°10'1019.0
2018-Aug-12 00:57N 49°43' W 002°04'1019.0
2018-Aug-12 00:24N 49°52' W 001°55'3116.1
2018-Aug-11 22:27N 50°18' W 001°28'714.8
2018-Aug-11 22:00N 50°24' W 001°22'714.2
2018-Aug-11 21:30N 50°29' W 001°16'613.0
2018-Aug-11 21:00N 50°35' W 001°10'612.3
2018-Aug-11 20:30N 50°40' W 001°04'611.3
2018-Aug-11 20:00N 50°45' W 001°05'3 7.0
2018-Aug-11 19:30N 50°49' W 001°06'0 0.0
2018-Aug-11 18:59N 50°49' W 001°06'0 0.0
2018-Aug-11 18:29N 50°49' W 001°06'0 0.0
2018-Aug-11 17:59N 50°49' W 001°06'0 0.2
2018-Aug-11 17:30N 50°49' W 001°06'510.2
2018-Aug-11 17:00N 50°44' W 001°03'612.5
2018-Aug-11 16:31N 50°38' W 001°02'918.8
2018-Aug-11 16:00N 50°30' W 001°10'918.3
2018-Aug-11 15:30N 50°23' W 001°20'6516.1
2018-Aug-11 11:29N 49°27' W 002°11'918.3
2018-Aug-11 11:00N 49°20' W 002°19'7 0.8
2018-Aug-11 03:03N 49°14' W 002°22'112.5
2018-Aug-11 02:59N 49°15' W 002°22'612.2
2018-Aug-11 02:29N 49°21' W 002°19'613.1
2018-Aug-11 02:00N 49°26' W 002°14'713.8
2018-Aug-11 01:30N 49°33' W 002°10'5616.4
2018-Aug-10 22:06N 50°20' W 001°26'114.8
2018-Aug-10 22:00N 50°21' W 001°24'714.6
2018-Aug-10 21:30N 50°27' W 001°17'713.9
2018-Aug-10 21:00N 50°33' W 001°11'713.5
2018-Aug-10 20:30N 50°38' W 001°06'611.3
2018-Aug-10 20:01N 50°44' W 001°04'5 9.7
2018-Aug-10 19:31N 50°49' W 001°06'0 0.5
2018-Aug-10 18:59N 50°49' W 001°06'0 0.0
2018-Aug-10 18:29N 50°49' W 001°06'0 0.0
2018-Aug-10 17:59N 50°49' W 001°06'0 0.0
2018-Aug-10 17:30N 50°49' W 001°06'3 5.4
2018-Aug-10 17:01N 50°46' W 001°05'714.7
2018-Aug-10 16:31N 50°40' W 000°58'1019.3
2018-Aug-10 16:01N 50°32' W 001°06'1019.4
2018-Aug-10 15:30N 50°24' W 001°15'5616.8
2018-Aug-10 12:09N 49°39' W 002°07'316.3
2018-Aug-10 11:58N 49°36' W 002°09'817.2
2018-Aug-10 11:29N 49°28' W 002°13'917.8
2018-Aug-10 11:01N 49°20' W 002°19'11 1.5
2018-Aug-10 03:40N 49°10' W 002°22'512.7
2018-Aug-10 03:18N 49°14' W 002°22'310.1
2018-Aug-10 02:59N 49°18' W 002°21'510.2
2018-Aug-10 02:30N 49°22' W 002°18'611.6
2018-Aug-10 01:58N 49°27' W 002°13'612.2
2018-Aug-10 01:31N 49°33' W 002°10'6615.6
2018-Aug-09 21:15N 50°29' W 001°16'414.7
2018-Aug-09 21:01N 50°32' W 001°13'714.5
2018-Aug-09 20:30N 50°38' W 001°06'611.9
2018-Aug-09 20:01N 50°44' W 001°03'611.0
2018-Aug-09 19:31N 50°49' W 001°07'1 1.6
2018-Aug-09 18:59N 50°49' W 001°06'0 0.0
2018-Aug-09 18:29N 50°49' W 001°06'0 0.0
2018-Aug-09 17:56N 50°49' W 001°06'0 0.0
2018-Aug-09 17:29N 50°49' W 001°06'1 2.8
2018-Aug-09 17:00N 50°47' W 001°07'713.9
2018-Aug-09 16:30N 50°43' W 000°59'917.1
2018-Aug-09 16:00N 50°35' W 001°03'1019.9
2018-Aug-09 15:30N 50°27' W 001°14'6018.0
2018-Aug-09 12:09N 49°37' W 002°07'317.0
2018-Aug-09 11:59N 49°35' W 002°09'817.1
2018-Aug-09 11:30N 49°27' W 002°14'917.1
2018-Aug-09 11:00N 49°19' W 002°20'10 1.3
2018-Aug-09 03:40N 49°10' W 002°22'315.7
2018-Aug-09 03:27N 49°13' W 002°22'512.1
2018-Aug-09 03:01N 49°19' W 002°21'510.2
2018-Aug-09 02:31N 49°23' W 002°17'611.3
2018-Aug-09 02:00N 49°28' W 002°13'611.9
2018-Aug-09 01:30N 49°34' W 002°09'3514.2
2018-Aug-08 23:03N 50°04' W 001°43'117.6
2018-Aug-08 23:00N 50°05' W 001°42'3117.0
2018-Aug-08 21:11N 50°30' W 001°15'315.3
2018-Aug-08 21:01N 50°32' W 001°12'815.7
2018-Aug-08 20:31N 50°39' W 001°05'611.5
2018-Aug-08 20:00N 50°45' W 001°05'4 8.3
2018-Aug-08 19:30N 50°49' W 001°06'0 0.3
2018-Aug-08 19:00N 50°49' W 001°06'0 0.0
2018-Aug-08 18:30N 50°49' W 001°06'0 0.0
2018-Aug-08 18:00N 50°49' W 001°06'0 0.0
2018-Aug-08 17:29N 50°49' W 001°06'1 2.5
2018-Aug-08 17:00N 50°48' W 001°07'611.8
2018-Aug-08 16:31N 50°42' W 001°03'815.1
2018-Aug-08 16:01N 50°35' W 001°07'816.3
2018-Aug-08 15:30N 50°28' W 001°14'1016.0
2018-Aug-08 14:51N 50°20' W 001°23'5017.6
2018-Aug-08 12:02N 49°39' W 002°07'016.1
2018-Aug-08 12:00N 49°38' W 002°07'917.8
2018-Aug-08 11:30N 49°30' W 002°12'917.7
2018-Aug-08 10:59N 49°22' W 002°18'45 8.1
2018-Aug-08 05:28N 48°38' W 002°02'613.7
2018-Aug-08 05:01N 48°44' W 002°07'914.6
2018-Aug-08 04:23N 48°51' W 002°16'614.9
2018-Aug-08 04:00N 48°55' W 002°21'915.0
2018-Aug-08 03:26N 49°04' W 002°22'715.0
2018-Aug-08 02:59N 49°10' W 002°22'714.1
2018-Aug-08 02:29N 49°17' W 002°20'713.6
2018-Aug-08 02:01N 49°23' W 002°17'714.2
2018-Aug-08 01:30N 49°30' W 002°12'714.6
2018-Aug-08 01:00N 49°37' W 002°08'815.3
2018-Aug-08 00:30N 49°44' W 002°03'815.8
2018-Aug-07 23:59N 49°51' W 001°56'  
Track history (hours):
 
Tides and Currents Weather Stations Pressure Air Temp Water Temp Dewpoint Dewpoint Depression Visibility Wind Speed Wind Dir Waves Ship Positions

Bretagne

Operator: Brittany Ferries

Last reported at 2018-Aug-17 23:31 UTC. Time now 2018-Aug-18 00:47 UTC.
Position N 49°55' W 001°45'.

Length 151 m; beam 27 m.

Type: Ship. MMSI: 227286000.

Date/timePositionNaut miles runAvg speedWind from/ knotsBaromVisibWave heightAir tempDewpointWater temp
2018-Aug-17 23:31N 49°55' W 001°45'013.2
2018-Aug-17 23:30N 49°56' W 001°45'3514.8
2018-Aug-17 21:10N 50°26' W 001°19'316.0
2018-Aug-17 21:00N 50°28' W 001°16'816.3
2018-Aug-17 20:30N 50°35' W 001°09'714.1
2018-Aug-17 20:01N 50°41' W 001°03'612.1
2018-Aug-17 19:30N 50°46' W 001°06'2 4.2
2018-Aug-17 18:58N 50°49' W 001°06'0 0.0
2018-Aug-17 18:28N 50°49' W 001°06'0 0.0
2018-Aug-17 17:58N 50°49' W 001°06'0 0.0
2018-Aug-17 17:28N 50°49' W 001°06'0 0.0
2018-Aug-17 17:00N 50°49' W 001°06'4 7.9
2018-Aug-17 16:30N 50°45' W 001°05'611.4
2018-Aug-17 16:01N 50°39' W 001°05'815.1
2018-Aug-17 15:31N 50°33' W 001°12'816.0
2018-Aug-17 14:59N 50°26' W 001°19'1017.3
2018-Aug-17 14:24N 50°18' W 001°28'74 6.7
2018-Aug-17 03:24N 49°13' W 002°22'512.5
2018-Aug-17 03:00N 49°18' W 002°20'714.6
2018-Aug-17 02:30N 49°24' W 002°16'816.1
2018-Aug-17 02:00N 49°32' W 002°11'815.8
2018-Aug-17 01:30N 49°39' W 002°05'4913.9
2018-Aug-16 21:58N 50°19' W 001°22'715.3
2018-Aug-16 21:30N 50°25' W 001°15'815.4
2018-Aug-16 21:00N 50°30' W 001°07'815.8
2018-Aug-16 20:30N 50°37' W 001°00'612.7
2018-Aug-16 20:00N 50°43' W 001°02'612.2
2018-Aug-16 19:31N 50°48' W 001°07'1 1.8
2018-Aug-16 19:00N 50°49' W 001°06'0 0.0
2018-Aug-16 18:30N 50°49' W 001°06'0 0.0
2018-Aug-16 18:00N 50°49' W 001°06'0 0.0
2018-Aug-16 17:30N 50°49' W 001°06'0 0.3
2018-Aug-16 17:00N 50°49' W 001°06'5 9.3
2018-Aug-16 16:30N 50°44' W 001°04'612.3
2018-Aug-16 16:00N 50°38' W 001°06'713.5
2018-Aug-16 15:30N 50°33' W 001°12'611.4
2018-Aug-16 15:00N 50°28' W 001°18'5517.6
2018-Aug-16 11:54N 49°41' W 002°02'1621.5
2018-Aug-16 11:10N 49°26' W 001°57'521.0
2018-Aug-16 10:55N 49°21' W 001°55'1420.0
2018-Aug-16 10:14N 49°07' W 001°52'1218.4
2018-Aug-16 09:36N 48°56' W 001°58'420.5
2018-Aug-16 09:25N 48°53' W 001°60'1020.2
2018-Aug-16 08:56N 48°43' W 002°05'5 2.1
2018-Aug-16 06:26N 48°38' W 002°02'0 1.0
2018-Aug-16 05:58N 48°39' W 002°02'613.3
2018-Aug-16 05:30N 48°44' W 002°07'815.4
2018-Aug-16 05:00N 48°50' W 002°15'2415.4
2018-Aug-16 03:27N 49°14' W 002°21'817.5
2018-Aug-16 03:00N 49°21' W 002°18'817.0
2018-Aug-16 02:31N 49°29' W 002°13'816.9
2018-Aug-16 02:00N 49°37' W 002°08'916.5
2018-Aug-16 01:28N 49°45' W 002°02'714.8
2018-Aug-16 01:00N 49°50' W 001°56'1313.9
2018-Aug-16 00:03N 50°02' W 001°46'213.7
2018-Aug-15 23:54N 50°03' W 001°44'612.9
2018-Aug-15 23:27N 50°08' W 001°38'1013.1
2018-Aug-15 22:42N 50°15' W 001°28'613.4
2018-Aug-15 22:14N 50°20' W 001°22'313.6
2018-Aug-15 22:00N 50°23' W 001°19'713.6
2018-Aug-15 21:30N 50°28' W 001°13'713.4
2018-Aug-15 20:59N 50°34' W 001°06'713.9
2018-Aug-15 20:31N 50°39' W 000°59'510.6
2018-Aug-15 20:01N 50°44' W 001°02'611.7
2018-Aug-15 19:31N 50°48' W 001°07'1 1.5
2018-Aug-15 19:00N 50°49' W 001°06'0 0.0
2018-Aug-15 18:30N 50°49' W 001°06'0 0.0
2018-Aug-15 18:00N 50°49' W 001°06'0 0.0
2018-Aug-15 17:30N 50°49' W 001°06'0 0.0
2018-Aug-15 17:00N 50°49' W 001°06'3 5.7
2018-Aug-15 16:31N 50°46' W 001°05'612.2
2018-Aug-15 16:00N 50°40' W 001°04'713.2
2018-Aug-15 15:31N 50°34' W 001°10'713.7
2018-Aug-15 15:00N 50°29' W 001°16'815.0
2018-Aug-15 14:30N 50°22' W 001°22'915.9
2018-Aug-15 13:55N 50°14' W 001°30'716.3
2018-Aug-15 13:30N 50°09' W 001°37'918.7
2018-Aug-15 13:00N 50°01' W 001°44'1020.8
2018-Aug-15 12:30N 49°52' W 001°53'1121.9
2018-Aug-15 12:00N 49°43' W 002°02'1221.5
2018-Aug-15 11:26N 49°31' W 001°59'921.2
2018-Aug-15 11:00N 49°22' W 001°56'1120.3
2018-Aug-15 10:28N 49°12' W 001°52'1019.7
2018-Aug-15 09:58N 49°02' W 001°51'920.6
2018-Aug-15 09:30N 48°54' W 001°59'1120.1
2018-Aug-15 08:57N 48°42' W 002°01'4 1.4
2018-Aug-15 06:09N 48°38' W 002°02'2 5.3
2018-Aug-15 05:51N 48°39' W 002°04'617.6
2018-Aug-15 05:30N 48°45' W 002°08'918.2
2018-Aug-15 05:00N 48°52' W 002°17'1313.1
2018-Aug-15 04:03N 49°04' W 002°22'113.0
2018-Aug-15 03:57N 49°05' W 002°22'813.3
2018-Aug-15 03:24N 49°12' W 002°21'614.4
2018-Aug-15 03:00N 49°18' W 002°20'815.8
2018-Aug-15 02:30N 49°25' W 002°15'917.5
2018-Aug-15 02:00N 49°33' W 002°10'917.9
2018-Aug-15 01:29N 49°42' W 002°05'916.4
2018-Aug-15 00:57N 49°49' W 001°57'714.4
2018-Aug-15 00:29N 49°54' W 001°49'714.0
2018-Aug-14 23:58N 49°59' W 001°43'2113.3
2018-Aug-14 22:22N 50°18' W 001°27'513.3
2018-Aug-14 21:59N 50°22' W 001°22'613.3
2018-Aug-14 21:30N 50°27' W 001°17'612.9
2018-Aug-14 21:00N 50°33' W 001°11'713.0
2018-Aug-14 20:30N 50°38' W 001°05'510.2
2018-Aug-14 20:00N 50°43' W 001°03'612.1
2018-Aug-14 19:31N 50°49' W 001°07'1 1.5
2018-Aug-14 18:58N 50°49' W 001°06'0 0.0
2018-Aug-14 18:28N 50°49' W 001°06'0 0.0
2018-Aug-14 17:58N 50°49' W 001°06'0 0.0
2018-Aug-14 17:28N 50°49' W 001°06'0 0.3
2018-Aug-14 17:00N 50°49' W 001°06'4 8.2
2018-Aug-14 16:31N 50°45' W 001°05'510.5
2018-Aug-14 16:00N 50°39' W 001°04'713.1
2018-Aug-14 15:30N 50°34' W 001°10'713.3
2018-Aug-14 15:01N 50°29' W 001°16'815.1
2018-Aug-14 14:30N 50°22' W 001°23'1016.4
2018-Aug-14 13:55N 50°15' W 001°32'1918.9
2018-Aug-14 12:57N 49°58' W 001°46'1019.9
2018-Aug-14 12:27N 49°50' W 001°55'920.5
2018-Aug-14 11:59N 49°42' W 002°02'1120.4
2018-Aug-14 11:28N 49°32' W 001°59'1020.8
2018-Aug-14 10:58N 49°21' W 001°56'1220.4
2018-Aug-14 10:24N 49°10' W 001°52'819.5
2018-Aug-14 09:58N 49°02' W 001°51'920.2
2018-Aug-14 09:30N 48°54' W 001°59'1119.7
2018-Aug-14 08:58N 48°43' W 002°01'5 1.6
2018-Aug-14 05:58N 48°38' W 002°02'912.9
2018-Aug-14 05:18N 48°46' W 002°08'513.2
2018-Aug-14 04:57N 48°49' W 002°14'713.4
2018-Aug-14 04:26N 48°54' W 002°21'2016.7
2018-Aug-14 03:14N 49°14' W 002°22'417.7
2018-Aug-14 03:00N 49°18' W 002°21'918.2
2018-Aug-14 02:30N 49°26' W 002°14'918.0
2018-Aug-14 02:00N 49°34' W 002°08'2417.2
2018-Aug-14 00:38N 49°54' W 001°50'315.1
2018-Aug-14 00:28N 49°56' W 001°47'2015.8
2018-Aug-13 23:10N 50°14' W 001°30'715.1
2018-Aug-13 22:42N 50°19' W 001°23'314.4
2018-Aug-13 22:31N 50°21' W 001°20'612.7
2018-Aug-13 22:01N 50°26' W 001°14'612.4
2018-Aug-13 21:31N 50°31' W 001°08'612.6
2018-Aug-13 21:00N 50°37' W 001°03'612.7
2018-Aug-13 20:31N 50°42' W 000°59'713.5
2018-Aug-13 20:00N 50°47' W 001°06'2 2.8
2018-Aug-13 19:25N 50°49' W 001°06'0 0.0
2018-Aug-13 18:58N 50°49' W 001°06'0 0.0
2018-Aug-13 18:28N 50°49' W 001°06'0 0.0
2018-Aug-13 17:55N 50°49' W 001°06'0 0.0
2018-Aug-13 17:30N 50°49' W 001°06'2 3.1
2018-Aug-13 17:01N 50°47' W 001°07'611.9
2018-Aug-13 16:31N 50°42' W 001°02'612.5
2018-Aug-13 16:00N 50°36' W 001°07'815.0
2018-Aug-13 15:30N 50°30' W 001°13'816.8
2018-Aug-13 15:00N 50°22' W 001°19'81 7.0
2018-Aug-13 03:17N 49°12' W 002°24'413.6
2018-Aug-13 02:58N 49°17' W 002°22'613.5
2018-Aug-13 02:30N 49°22' W 002°17'816.8
2018-Aug-13 02:01N 49°29' W 002°12'5316.7
2018-Aug-12 22:48N 50°16' W 001°30'514.0
2018-Aug-12 22:27N 50°20' W 001°26'613.6
2018-Aug-12 22:00N 50°24' W 001°20'713.1
2018-Aug-12 21:30N 50°30' W 001°14'612.5
2018-Aug-12 21:00N 50°35' W 001°08'612.5
2018-Aug-12 20:30N 50°40' W 001°03'612.4
2018-Aug-12 20:00N 50°46' W 001°06'2 4.0
2018-Aug-12 19:26N 50°49' W 001°06'0 0.0
2018-Aug-12 18:58N 50°49' W 001°06'0 0.0
2018-Aug-12 18:26N 50°49' W 001°06'0 0.0
2018-Aug-12 17:56N 50°49' W 001°06'0 0.1
2018-Aug-12 17:30N 50°49' W 001°06'3 5.3
2018-Aug-12 17:01N 50°46' W 001°05'714.1
2018-Aug-12 16:31N 50°40' W 000°59'917.2
2018-Aug-12 16:01N 50°33' W 001°08'917.7
2018-Aug-12 15:30N 50°25' W 001°14'917.4
2018-Aug-12 15:01N 50°18' W 001°21'916.9
2018-Aug-12 14:30N 50°11' W 001°29'916.3
2018-Aug-12 13:55N 50°05' W 001°40'716.6
2018-Aug-12 13:30N 49°59' W 001°46'1216.8
2018-Aug-12 12:49N 49°50' W 001°57'516.8
2018-Aug-12 12:30N 49°46' W 002°03'1115.9
2018-Aug-12 11:50N 49°36' W 002°08'618.8
2018-Aug-12 11:30N 49°31' W 002°12'1019.7
2018-Aug-12 11:00N 49°21' W 002°18'1420.2
2018-Aug-12 10:19N 49°08' W 002°21'721.1
2018-Aug-12 10:00N 49°01' W 002°21'1020.9
2018-Aug-12 09:31N 48°51' W 002°17'1121.0
2018-Aug-12 09:00N 48°43' W 002°07'5 8.0
2018-Aug-12 08:20N 48°38' W 002°02'0 0.0
2018-Aug-12 07:59N 48°38' W 002°02'0 0.0
2018-Aug-12 07:08N 48°38' W 002°02'0 0.0
2018-Aug-12 06:38N 48°38' W 002°02'0 0.0
2018-Aug-12 06:13N 48°38' W 002°02'0 0.5
2018-Aug-12 06:00N 48°38' W 002°02'612.8
2018-Aug-12 05:30N 48°44' W 002°07'714.0
2018-Aug-12 04:59N 48°50' W 002°14'714.5
2018-Aug-12 04:30N 48°55' W 002°21'913.2
2018-Aug-12 03:49N 49°04' W 002°22'613.4
2018-Aug-12 03:23N 49°10' W 002°23'513.1
2018-Aug-12 03:00N 49°15' W 002°22'612.7
2018-Aug-12 02:30N 49°21' W 002°19'714.0
2018-Aug-12 02:00N 49°27' W 002°14'714.1
2018-Aug-12 01:30N 49°33' W 002°10'1019.0
2018-Aug-12 00:57N 49°43' W 002°04'1019.0
2018-Aug-12 00:24N 49°52' W 001°55'3116.1
2018-Aug-11 22:27N 50°18' W 001°28'714.8
2018-Aug-11 22:00N 50°24' W 001°22'714.2
2018-Aug-11 21:30N 50°29' W 001°16'613.0
2018-Aug-11 21:00N 50°35' W 001°10'612.3
2018-Aug-11 20:30N 50°40' W 001°04'611.3
2018-Aug-11 20:00N 50°45' W 001°05'3 7.0
2018-Aug-11 19:30N 50°49' W 001°06'0 0.0
2018-Aug-11 18:59N 50°49' W 001°06'0 0.0
2018-Aug-11 18:29N 50°49' W 001°06'0 0.0
2018-Aug-11 17:59N 50°49' W 001°06'0 0.2
2018-Aug-11 17:30N 50°49' W 001°06'510.2
2018-Aug-11 17:00N 50°44' W 001°03'612.5
2018-Aug-11 16:31N 50°38' W 001°02'918.8
2018-Aug-11 16:00N 50°30' W 001°10'918.3
2018-Aug-11 15:30N 50°23' W 001°20'6516.1
2018-Aug-11 11:29N 49°27' W 002°11'918.3
2018-Aug-11 11:00N 49°20' W 002°19'7 0.8
2018-Aug-11 03:03N 49°14' W 002°22'112.5
2018-Aug-11 02:59N 49°15' W 002°22'612.2
2018-Aug-11 02:29N 49°21' W 002°19'613.1
2018-Aug-11 02:00N 49°26' W 002°14'713.8
2018-Aug-11 01:30N 49°33' W 002°10'5616.4
2018-Aug-10 22:06N 50°20' W 001°26'114.8
2018-Aug-10 22:00N 50°21' W 001°24'714.6
2018-Aug-10 21:30N 50°27' W 001°17'713.9
2018-Aug-10 21:00N 50°33' W 001°11'713.5
2018-Aug-10 20:30N 50°38' W 001°06'611.3
2018-Aug-10 20:01N 50°44' W 001°04'5 9.7
2018-Aug-10 19:31N 50°49' W 001°06'0 0.5
2018-Aug-10 18:59N 50°49' W 001°06'0 0.0
2018-Aug-10 18:29N 50°49' W 001°06'0 0.0
2018-Aug-10 17:59N 50°49' W 001°06'0 0.0
2018-Aug-10 17:30N 50°49' W 001°06'3 5.4
2018-Aug-10 17:01N 50°46' W 001°05'714.7
2018-Aug-10 16:31N 50°40' W 000°58'1019.3
2018-Aug-10 16:01N 50°32' W 001°06'1019.4
2018-Aug-10 15:30N 50°24' W 001°15'5616.8
2018-Aug-10 12:09N 49°39' W 002°07'316.3
2018-Aug-10 11:58N 49°36' W 002°09'817.2
2018-Aug-10 11:29N 49°28' W 002°13'917.8
2018-Aug-10 11:01N 49°20' W 002°19'11 1.5
2018-Aug-10 03:40N 49°10' W 002°22'512.7
2018-Aug-10 03:18N 49°14' W 002°22'310.1
2018-Aug-10 02:59N 49°18' W 002°21'510.2
2018-Aug-10 02:30N 49°22' W 002°18'611.6
2018-Aug-10 01:58N 49°27' W 002°13'612.2
2018-Aug-10 01:31N 49°33' W 002°10'6615.6
2018-Aug-09 21:15N 50°29' W 001°16'414.7
2018-Aug-09 21:01N 50°32' W 001°13'714.5
2018-Aug-09 20:30N 50°38' W 001°06'611.9
2018-Aug-09 20:01N 50°44' W 001°03'611.0
2018-Aug-09 19:31N 50°49' W 001°07'1 1.6
2018-Aug-09 18:59N 50°49' W 001°06'0 0.0
2018-Aug-09 18:29N 50°49' W 001°06'0 0.0
2018-Aug-09 17:56N 50°49' W 001°06'0 0.0
2018-Aug-09 17:29N 50°49' W 001°06'1 2.8
2018-Aug-09 17:00N 50°47' W 001°07'713.9
2018-Aug-09 16:30N 50°43' W 000°59'917.1
2018-Aug-09 16:00N 50°35' W 001°03'1019.9
2018-Aug-09 15:30N 50°27' W 001°14'6018.0
2018-Aug-09 12:09N 49°37' W 002°07'317.0
2018-Aug-09 11:59N 49°35' W 002°09'817.1
2018-Aug-09 11:30N 49°27' W 002°14'917.1
2018-Aug-09 11:00N 49°19' W 002°20'10 1.3
2018-Aug-09 03:40N 49°10' W 002°22'315.7
2018-Aug-09 03:27N 49°13' W 002°22'512.1
2018-Aug-09 03:01N 49°19' W 002°21'510.2
2018-Aug-09 02:31N 49°23' W 002°17'611.3
2018-Aug-09 02:00N 49°28' W 002°13'611.9
2018-Aug-09 01:30N 49°34' W 002°09'3514.2
2018-Aug-08 23:03N 50°04' W 001°43'117.6
2018-Aug-08 23:00N 50°05' W 001°42'3117.0
2018-Aug-08 21:11N 50°30' W 001°15'315.3
2018-Aug-08 21:01N 50°32' W 001°12'815.7
2018-Aug-08 20:31N 50°39' W 001°05'611.5
2018-Aug-08 20:00N 50°45' W 001°05'4 8.3
2018-Aug-08 19:30N 50°49' W 001°06'0 0.3
2018-Aug-08 19:00N 50°49' W 001°06'0 0.0
2018-Aug-08 18:30N 50°49' W 001°06'0 0.0
2018-Aug-08 18:00N 50°49' W 001°06'0 0.0
2018-Aug-08 17:29N 50°49' W 001°06'1 2.5
2018-Aug-08 17:00N 50°48' W 001°07'611.8
2018-Aug-08 16:31N 50°42' W 001°03'815.1
2018-Aug-08 16:01N 50°35' W 001°07'816.3
2018-Aug-08 15:30N 50°28' W 001°14'1016.0
2018-Aug-08 14:51N 50°20' W 001°23'5017.6
2018-Aug-08 12:02N 49°39' W 002°07'016.1
2018-Aug-08 12:00N 49°38' W 002°07'917.8
2018-Aug-08 11:30N 49°30' W 002°12'917.7
2018-Aug-08 10:59N 49°22' W 002°18'45 8.1
2018-Aug-08 05:28N 48°38' W 002°02'613.7
2018-Aug-08 05:01N 48°44' W 002°07'914.6
2018-Aug-08 04:23N 48°51' W 002°16'614.9
2018-Aug-08 04:00N 48°55' W 002°21'915.0
2018-Aug-08 03:26N 49°04' W 002°22'715.0
2018-Aug-08 02:59N 49°10' W 002°22'714.1
2018-Aug-08 02:29N 49°17' W 002°20'713.6
2018-Aug-08 02:01N 49°23' W 002°17'714.2
2018-Aug-08 01:30N 49°30' W 002°12'714.6
2018-Aug-08 01:00N 49°37' W 002°08'815.3
2018-Aug-08 00:30N 49°44' W 002°03'815.8
2018-Aug-07 23:59N 49°51' W 001°56'  

Dump ship's entire track history